Portsoy, United Kingdom
Current Conditions -  °F | °C
As of 5:50 PM on Thursday 25 Dec 2014 (Local Time) from EGQS Reporting Station
Clear Clear  
Wind Chill: 26°   Ceiling: Unl
Heat Index: 34°   Visibility: 6mi
Dew Point: 30°   Wind: 9mph
Humidity: 87%   Direction: 260°W
Pressure: 30.36"   Gusts: NA
Location:  57.68°N, 2.69°W
Report Text: EGQS 251750Z 26008KT CAVOK 01/M01 Q1028 BLU
Loading
Personal Weather Stations






























Interactive Weather Map New forecast layout! Learn more

10-Day Weather Forecast

Advertisements
Track Severe Weather on mobile